Time;durP1;ratioP1;P1;durP2;ratioP2;P2;SDS_P1;SDS_P2;PMS_P1;PMS_P2;Temp;Humidity;BMP_temperature;BMP_pressure;BME280_temperature;BME280_humidity;BME280_pressure;Samples;Min_cycle;Max_cycle;Signal;HPM_P1;HPM_P2
2022/02/02 00:00:48;;;;;;;0.55;0.22;;;;;;;;;;4376544;32;20059;-92
2022/02/02 00:03:20;;;;;;;0.10;0.10;;;;;;;;;;4376959;32;20035;-92
2022/02/02 00:06:13;;;;;;;0.43;0.30;;;;;;;;;;4385931;32;20088;-91
2022/02/02 00:08:58;;;;;;;0.32;0.20;;;;;;;;;;4387146;32;20402;-91
2022/02/02 00:16:59;;;;;;;0.20;0.20;;;;;;;;;;4379371;32;20053;-92
2022/02/02 00:22:10;;;;;;;0.30;0.20;;;;;;;;;;4365743;32;20351;-92
2022/02/02 00:25:09;;;;;;;0.60;0.10;;;;;;;;;;4365404;32;20074;-91
2022/02/02 00:27:40;;;;;;;0.47;0.10;;;;;;;;;;4365617;32;20098;-91
2022/02/02 00:30:13;;;;;;;0.52;0.20;;;;;;;;;;4365290;32;20093;-91
2022/02/02 00:35:18;;;;;;;0.20;0.17;;;;;;;;;;4365651;32;20066;-92
2022/02/02 00:37:47;;;;;;;0.55;0.30;;;;;;;;;;4366359;32;20054;-92
2022/02/02 00:40:16;;;;;;;0.10;0.10;;;;;;;;;;4366122;32;20048;-91
2022/02/02 00:42:48;;;;;;;0.35;0.20;;;;;;;;;;4365345;32;20067;-92
2022/02/02 00:45:19;;;;;;;0.10;0.10;;;;;;;;;;4355459;32;20134;-91
2022/02/02 00:47:51;;;;;;;0.17;0.10;;;;;;;;;;4364935;32;20425;-91
2022/02/02 00:50:20;;;;;;;0.43;0.22;;;;;;;;;;4365681;32;20053;-92
2022/02/02 00:52:51;;;;;;;0.35;0.28;;;;;;;;;;4380096;32;20036;-92
2022/02/02 00:55:21;;;;;;;0.60;0.20;;;;;;;;;;4362575;32;20096;-91
2022/02/02 00:57:49;;;;;;;0.30;0.10;;;;;;;;;;4378227;32;20110;-92
2022/02/02 01:00:18;;;;;;;0.62;0.20;;;;;;;;;;4365521;32;20409;-92
2022/02/02 01:02:48;;;;;;;0.20;0.20;;;;;;;;;;4352941;32;20525;-92
2022/02/02 01:05:16;;;;;;;0.43;0.28;;;;;;;;;;4378288;32;20385;-92
2022/02/02 01:08:17;;;;;;;1.23;0.25;;;;;;;;;;4378204;32;20058;-92
2022/02/02 01:10:47;;;;;;;0.45;0.20;;;;;;;;;;4352713;32;20062;-92
2022/02/02 01:19:14;;;;;;;1.55;0.40;;;;;;;;;;4371697;32;20107;-92
2022/02/02 01:21:57;;;;;;;0.10;0.10;;;;;;;;;;4352733;32;20035;-92
2022/02/02 01:30:06;;;;;;;0.65;0.17;;;;;;;;;;4364828;32;20103;-92
2022/02/02 01:32:36;;;;;;;0.10;0.10;;;;;;;;;;4365688;32;20044;-92
2022/02/02 01:35:12;;;;;;;0.37;0.30;;;;;;;;;;4364467;32;20073;-92
2022/02/02 01:37:43;;;;;;;0.28;0.10;;;;;;;;;;4363948;32;20057;-92
2022/02/02 01:40:22;;;;;;;0.65;0.20;;;;;;;;;;4377380;32;20027;-92
2022/02/02 01:43:00;;;;;;;0.20;0.20;;;;;;;;;;4378116;32;20047;-92
2022/02/02 01:45:47;;;;;;;0.35;0.30;;;;;;;;;;4377471;32;20082;-92
2022/02/02 01:50:56;;;;;;;0.57;0.17;;;;;;;;;;4365965;32;20051;-92
2022/02/02 01:56:09;;;;;;;0.20;0.20;;;;;;;;;;4363599;32;20039;-92
2022/02/02 02:01:08;;;;;;;0.57;0.20;;;;;;;;;;4378030;32;20425;-92
2022/02/02 02:03:38;;;;;;;0.62;0.15;;;;;;;;;;4365080;32;20085;-92
2022/02/02 02:06:08;;;;;;;0.35;0.20;;;;;;;;;;4351594;32;20047;-92
2022/02/02 02:08:38;;;;;;;0.35;0.20;;;;;;;;;;4364889;32;20090;-92
2022/02/02 02:11:13;;;;;;;0.47;0.30;;;;;;;;;;4379597;32;20031;-92
2022/02/02 02:16:11;;;;;;;1.62;0.20;;;;;;;;;;4379158;32;20051;-92
2022/02/02 02:18:40;;;;;;;1.02;0.25;;;;;;;;;;4377886;32;20036;-92
2022/02/02 02:21:12;;;;;;;0.65;0.20;;;;;;;;;;4351725;32;20051;-92
2022/02/02 02:23:44;;;;;;;0.20;0.20;;;;;;;;;;4378664;32;20062;-92
2022/02/02 02:26:21;;;;;;;0.20;0.20;;;;;;;;;;4364222;32;20035;-92
2022/02/02 02:40:15;;;;;;;0.10;0.10;;;;;;;;;;4333221;33;20541;-92
2022/02/02 02:56:44;;;;;;;0.75;0.20;;;;;;;;;;4361418;32;20036;-92
2022/02/02 02:59:18;;;;;;;0.57;0.20;;;;;;;;;;4361505;32;20031;-92
2022/02/02 03:49:17;;;;;;;0.45;0.20;;;;;;;;;;4361296;32;20044;-92
2022/02/02 03:59:44;;;;;;;0.50;0.22;;;;;;;;;;4362884;32;20391;-92
2022/02/02 04:07:54;;;;;;;0.60;0.30;;;;;;;;;;4360832;33;20054;-91
2022/02/02 04:10:24;;;;;;;1.15;0.25;;;;;;;;;;4361139;33;20024;-92
2022/02/02 04:13:07;;;;;;;2.15;0.50;;;;;;;;;;4346657;33;20059;-92
2022/02/02 04:54:28;;;;;;;1.85;0.37;;;;;;;;;;4348886;33;20411;-93
2022/02/02 05:11:00;;;;;;;1.92;0.30;;;;;;;;;;4363453;32;20036;-92
2022/02/02 05:28:26;;;;;;;0.35;0.30;;;;;;;;;;4351988;33;20036;-92
2022/02/02 05:41:59;;;;;;;0.88;0.40;;;;;;;;;;4350502;33;20040;-92
2022/02/02 05:44:54;;;;;;;1.37;0.40;;;;;;;;;;4362578;32;20435;-93
2022/02/02 05:52:47;;;;;;;1.80;0.50;;;;;;;;;;4350584;33;20048;-93
2022/02/02 05:55:18;;;;;;;0.62;0.40;;;;;;;;;;4362690;33;20418;-93
2022/02/02 05:57:47;;;;;;;0.88;0.40;;;;;;;;;;4349091;33;20055;-92
2022/02/02 06:00:16;;;;;;;0.40;0.37;;;;;;;;;;4361748;33;20111;-92
2022/02/02 06:02:47;;;;;;;0.90;0.37;;;;;;;;;;4350612;33;20048;-93
2022/02/02 06:05:16;;;;;;;1.75;0.37;;;;;;;;;;4345330;33;20036;-93
2022/02/02 06:07:49;;;;;;;0.88;0.40;;;;;;;;;;4361773;33;20061;-93
2022/02/02 06:10:19;;;;;;;1.27;0.33;;;;;;;;;;4362678;32;20051;-93
2022/02/02 06:12:49;;;;;;;0.57;0.30;;;;;;;;;;4349956;33;20044;-93
2022/02/02 06:15:19;;;;;;;0.62;0.40;;;;;;;;;;4362739;32;20036;-92
2022/02/02 06:17:51;;;;;;;0.88;0.30;;;;;;;;;;4348975;33;20051;-93
2022/02/02 06:20:21;;;;;;;0.35;0.30;;;;;;;;;;4361008;32;20419;-92
2022/02/02 06:23:13;;;;;;;0.95;0.25;;;;;;;;;;4362115;32;20493;-91
2022/02/02 06:25:45;;;;;;;1.77;0.37;;;;;;;;;;4348648;33;20095;-92
2022/02/02 06:28:18;;;;;;;1.45;0.30;;;;;;;;;;4349167;33;20063;-92
2022/02/02 06:30:51;;;;;;;1.10;0.30;;;;;;;;;;4361164;33;20051;-90
2022/02/02 06:33:41;;;;;;;0.62;0.30;;;;;;;;;;4349061;33;20082;-90
2022/02/02 06:36:12;;;;;;;1.15;0.30;;;;;;;;;;4362514;33;20054;-91
2022/02/02 06:38:42;;;;;;;1.45;0.30;;;;;;;;;;4348936;33;20048;-90
2022/02/02 06:41:16;;;;;;;0.47;0.30;;;;;;;;;;4361137;33;20039;-89
2022/02/02 06:43:45;;;;;;;1.33;0.30;;;;;;;;;;4365475;32;20047;-90
2022/02/02 06:46:16;;;;;;;1.37;0.40;;;;;;;;;;4350452;32;20054;-90
2022/02/02 06:48:45;;;;;;;1.08;0.40;;;;;;;;;;4361758;32;20047;-89
2022/02/02 06:51:23;;;;;;;2.35;0.30;;;;;;;;;;4348889;33;20055;-90
2022/02/02 06:54:01;;;;;;;1.25;0.40;;;;;;;;;;4350404;32;20142;-90
2022/02/02 07:02:29;;;;;;;1.40;0.30;;;;;;;;;;4363195;32;20427;-90
2022/02/02 07:07:51;;;;;;;0.80;0.20;;;;;;;;;;4362005;33;20044;-89
2022/02/02 07:29:13;;;;;;;0.80;0.40;;;;;;;;;;4348004;33;20473;-90
2022/02/02 07:32:17;;;;;;;0.75;0.25;;;;;;;;;;4360162;32;20470;-90
2022/02/02 07:34:54;;;;;;;0.83;0.30;;;;;;;;;;4372828;32;20043;-90
2022/02/02 07:37:37;;;;;;;1.15;0.28;;;;;;;;;;4361721;32;20044;-90
2022/02/02 07:40:09;;;;;;;0.97;0.37;;;;;;;;;;4348091;33;20036;-90
2022/02/02 07:42:42;;;;;;;2.12;0.40;;;;;;;;;;4361237;33;20316;-90
2022/02/02 07:45:12;;;;;;;0.30;0.30;;;;;;;;;;4375141;32;20110;-92
2022/02/02 07:47:42;;;;;;;1.85;0.60;;;;;;;;;;4349240;33;20416;-92
2022/02/02 07:50:18;;;;;;;4.85;0.80;;;;;;;;;;4360413;33;20043;-91
2022/02/02 07:52:49;;;;;;;4.20;0.77;;;;;;;;;;4360779;32;20081;-92
2022/02/02 07:55:19;;;;;;;4.03;1.00;;;;;;;;;;4361103;32;20097;-92
2022/02/02 07:57:50;;;;;;;6.62;0.70;;;;;;;;;;4348830;32;20075;-92
2022/02/02 08:00:22;;;;;;;3.28;0.77;;;;;;;;;;4363241;32;20057;-92
2022/02/02 08:03:04;;;;;;;2.60;0.60;;;;;;;;;;4364273;32;20051;-92
2022/02/02 08:05:39;;;;;;;2.97;1.00;;;;;;;;;;4374667;32;20039;-92
2022/02/02 08:10:49;;;;;;;5.87;0.82;;;;;;;;;;4363111;32;20427;-92
2022/02/02 08:13:23;;;;;;;3.95;1.00;;;;;;;;;;4387772;32;20095;-92
2022/02/02 08:15:59;;;;;;;4.90;1.02;;;;;;;;;;4375691;32;20525;-93
2022/02/02 08:18:29;;;;;;;5.05;1.30;;;;;;;;;;4374649;32;20161;-92
2022/02/02 08:20:57;;;;;;;5.72;1.02;;;;;;;;;;4363740;32;20066;-92
2022/02/02 08:23:26;;;;;;;6.65;1.40;;;;;;;;;;4386661;32;20050;-92
2022/02/02 08:25:58;;;;;;;7.65;1.55;;;;;;;;;;4363217;32;20070;-92
2022/02/02 08:28:27;;;;;;;4.93;1.10;;;;;;;;;;4371985;32;20370;-92
2022/02/02 08:30:57;;;;;;;9.50;1.70;;;;;;;;;;4363324;32;20392;-92
2022/02/02 08:33:33;;;;;;;6.22;1.30;;;;;;;;;;4377839;32;20043;-92
2022/02/02 08:36:04;;;;;;;8.18;1.37;;;;;;;;;;4363382;32;20138;-92
2022/02/02 08:38:46;;;;;;;6.85;1.33;;;;;;;;;;4390799;32;20040;-93
2022/02/02 08:41:29;;;;;;;7.50;1.62;;;;;;;;;;4378327;32;20089;-93
2022/02/02 08:44:07;;;;;;;8.57;1.30;;;;;;;;;;4364687;32;20039;-92
2022/02/02 08:46:41;;;;;;;5.00;1.27;;;;;;;;;;4367227;32;20381;-93
2022/02/02 08:49:13;;;;;;;12.30;1.80;;;;;;;;;;4367537;32;20087;-92
2022/02/02 08:51:46;;;;;;;10.80;1.67;;;;;;;;;;4367606;32;20448;-92
2022/02/02 08:54:30;;;;;;;9.23;1.30;;;;;;;;;;4379157;32;20077;-93
2022/02/02 08:57:44;;;;;;;5.75;1.35;;;;;;;;;;4378907;32;20424;-92
2022/02/02 09:00:21;;;;;;;11.60;1.62;;;;;;;;;;4378223;32;20067;-93
2022/02/02 09:05:19;;;;;;;8.02;1.52;;;;;;;;;;4380794;32;20055;-93
2022/02/02 09:05:48;;;;;;;8.38;1.62;;;;;;;;;;4354340;32;20036;-93
2022/02/02 09:08:19;;;;;;;9.68;2.08;;;;;;;;;;4354223;32;20058;-93
2022/02/02 09:25:04;;;;;;;9.57;1.65;;;;;;;;;;4378564;32;20089;-90
2022/02/02 09:35:58;;;;;;;7.43;1.85;;;;;;;;;;4365172;32;20047;-92
2022/02/02 09:38:28;;;;;;;6.60;1.60;;;;;;;;;;4352851;32;20067;-92
2022/02/02 09:47:51;;;;;;;9.48;1.70;;;;;;;;;;4387592;32;20034;-92
2022/02/02 09:54:19;;;;;;;12.35;1.90;;;;;;;;;;4350722;33;20062;-92
2022/02/02 10:05:48;;;;;;;10.25;2.15;;;;;;;;;;4334856;33;20099;-92
2022/02/02 10:08:37;;;;;;;6.68;1.42;;;;;;;;;;4334325;33;20094;-92
2022/02/02 10:11:36;;;;;;;9.65;1.92;;;;;;;;;;4336352;33;20037;-93
2022/02/02 10:14:26;;;;;;;8.18;2.00;;;;;;;;;;4337475;33;20053;-91
2022/02/02 10:16:56;;;;;;;8.07;1.65;;;;;;;;;;4348997;33;20055;-93
2022/02/02 10:19:25;;;;;;;8.77;1.87;;;;;;;;;;4352456;33;20098;-93
2022/02/02 10:21:56;;;;;;;7.45;1.80;;;;;;;;;;4362621;33;20032;-93
2022/02/02 10:24:44;;;;;;;4.97;1.60;;;;;;;;;;4353406;32;20031;-93
2022/02/02 10:27:25;;;;;;;11.80;1.62;;;;;;;;;;4355420;32;20092;-92
2022/02/02 10:30:14;;;;;;;8.32;1.35;;;;;;;;;;4367748;32;20063;-93
2022/02/02 10:32:48;;;;;;;9.07;1.62;;;;;;;;;;4366656;32;20481;-93
2022/02/02 10:35:38;;;;;;;8.75;1.70;;;;;;;;;;4353362;32;20058;-93
2022/02/02 10:38:28;;;;;;;8.45;1.55;;;;;;;;;;4349706;32;20116;-93
2022/02/02 10:41:29;;;;;;;5.18;1.42;;;;;;;;;;4365477;32;20062;-93
2022/02/02 10:44:21;;;;;;;9.75;1.75;;;;;;;;;;4364426;32;20035;-92
2022/02/02 10:46:56;;;;;;;6.03;1.45;;;;;;;;;;4352516;32;20496;-92
2022/02/02 10:49:43;;;;;;;6.95;1.62;;;;;;;;;;4352872;32;20043;-93
2022/02/02 11:00:46;;;;;;;8.13;1.50;;;;;;;;;;4366082;32;20043;-92
2022/02/02 11:06:37;;;;;;;10.02;1.60;;;;;;;;;;4344558;33;20078;-93
2022/02/02 11:09:10;;;;;;;7.22;1.30;;;;;;;;;;4349357;33;20044;-93
2022/02/02 11:15:36;;;;;;;2.80;1.30;;;;;;;;;;4316748;33;20071;-93
2022/02/02 11:18:12;;;;;;;6.85;1.45;;;;;;;;;;4303911;33;20048;-93
2022/02/02 11:20:45;;;;;;;4.50;1.30;;;;;;;;;;4316279;33;20044;-93
2022/02/02 11:23:19;;;;;;;4.62;1.02;;;;;;;;;;4304030;33;20049;-93
2022/02/02 11:25:55;;;;;;;7.18;1.20;;;;;;;;;;4292674;33;20066;-92
2022/02/02 11:28:34;;;;;;;5.60;1.30;;;;;;;;;;4304841;33;20119;-92
2022/02/02 11:31:07;;;;;;;4.07;1.20;;;;;;;;;;4291552;33;20552;-92
2022/02/02 11:33:48;;;;;;;6.97;1.25;;;;;;;;;;4315917;33;20057;-92
2022/02/02 11:36:20;;;;;;;2.53;1.10;;;;;;;;;;4303293;33;20084;-92
2022/02/02 11:38:55;;;;;;;6.37;1.35;;;;;;;;;;4302805;33;20088;-92
2022/02/02 11:46:45;;;;;;;6.20;1.10;;;;;;;;;;4303622;33;20045;-93
2022/02/02 11:49:34;;;;;;;3.55;1.10;;;;;;;;;;4320040;33;20107;-92
2022/02/02 11:52:05;;;;;;;8.02;1.12;;;;;;;;;;4357448;33;20054;-92
2022/02/02 11:54:39;;;;;;;3.90;1.20;;;;;;;;;;4334607;33;20064;-93
2022/02/02 11:57:19;;;;;;;3.35;0.90;;;;;;;;;;4342184;33;20128;-93
2022/02/02 12:03:42;;;;;;;5.32;1.30;;;;;;;;;;4357001;33;20066;-92
2022/02/02 12:09:29;;;;;;;4.22;1.20;;;;;;;;;;4349448;33;20031;-93
2022/02/02 12:19:06;;;;;;;6.45;1.27;;;;;;;;;;4339639;33;20097;-94
2022/02/02 12:47:13;;;;;;;7.45;1.40;;;;;;;;;;4361779;33;20028;-92
2022/02/02 12:50:01;;;;;;;4.47;1.33;;;;;;;;;;4335962;33;20146;-93
2022/02/02 12:58:14;;;;;;;5.65;1.50;;;;;;;;;;4348187;33;20378;-93
2022/02/02 13:03:17;;;;;;;6.53;1.30;;;;;;;;;;4335986;33;20048;-93
2022/02/02 13:05:52;;;;;;;5.65;1.52;;;;;;;;;;4350460;32;20024;-93
2022/02/02 13:08:21;;;;;;;6.55;1.40;;;;;;;;;;4376249;32;20049;-92
2022/02/02 13:10:51;;;;;;;5.37;1.45;;;;;;;;;;4363268;32;20063;-93
2022/02/02 13:13:27;;;;;;;2.72;1.30;;;;;;;;;;4376251;32;20055;-93
2022/02/02 13:16:16;;;;;;;6.37;1.40;;;;;;;;;;4351521;32;20044;-93
2022/02/02 13:18:48;;;;;;;5.55;1.30;;;;;;;;;;4353465;32;20043;-94
2022/02/02 13:21:42;;;;;;;4.95;1.20;;;;;;;;;;4368735;32;20336;-94
2022/02/02 13:24:20;;;;;;;5.55;1.50;;;;;;;;;;4379677;32;20062;-93
2022/02/02 13:27:02;;;;;;;11.73;1.80;;;;;;;;;;4367011;32;20031;-94
2022/02/02 13:29:43;;;;;;;5.85;1.35;;;;;;;;;;4367441;32;20073;-93
2022/02/02 13:32:47;;;;;;;4.85;1.40;;;;;;;;;;4367954;32;20043;-93
2022/02/02 13:35:16;;;;;;;4.47;1.50;;;;;;;;;;4366364;32;20047;-94
2022/02/02 13:54:41;;;;;;;3.50;1.30;;;;;;;;;;4378155;32;20076;-91
2022/02/02 13:58:17;;;;;;;6.85;1.50;;;;;;;;;;4364927;32;20102;-92
2022/02/02 14:00:37;;;;;;;7.07;1.42;;;;;;;;;;4360122;32;20043;-92
2022/02/02 14:06:16;;;;;;;8.27;1.70;;;;;;;;;;4350012;33;20458;-92
2022/02/02 14:33:47;;;;;;;7.22;1.40;;;;;;;;;;4365983;32;20062;-94
2022/02/02 14:39:59;;;;;;;6.07;1.00;;;;;;;;;;4332022;33;20051;-93
2022/02/02 14:42:32;;;;;;;5.15;1.75;;;;;;;;;;4319608;33;20104;-94
2022/02/02 14:45:09;;;;;;;3.33;1.23;;;;;;;;;;4322348;33;20139;-93
2022/02/02 14:52:00;;;;;;;4.22;1.10;;;;;;;;;;4332872;33;20067;-94
2022/02/02 15:29:58;;;;;;;8.15;1.30;;;;;;;;;;4317370;33;20056;-94
2022/02/02 15:32:31;;;;;;;5.47;1.12;;;;;;;;;;4306317;33;20045;-93
2022/02/02 15:35:00;;;;;;;5.95;1.20;;;;;;;;;;4304407;33;20059;-93
2022/02/02 15:37:37;;;;;;;6.75;1.00;;;;;;;;;;4319325;33;20464;-93
2022/02/02 15:40:13;;;;;;;12.68;1.58;;;;;;;;;;4293266;33;20472;-91
2022/02/02 15:43:02;;;;;;;4.43;1.15;;;;;;;;;;4303470;33;20056;-91
2022/02/02 15:59:10;;;;;;;2.50;0.70;;;;;;;;;;4332440;33;20036;-91
2022/02/02 16:04:21;;;;;;;3.95;0.90;;;;;;;;;;4349750;33;20065;-91
2022/02/02 16:06:51;;;;;;;3.10;0.95;;;;;;;;;;4359623;33;20107;-92
2022/02/02 16:09:27;;;;;;;3.60;0.90;;;;;;;;;;4361741;33;20321;-92
2022/02/02 16:12:07;;;;;;;3.12;0.90;;;;;;;;;;4350150;33;20044;-91
2022/02/02 16:14:43;;;;;;;1.77;0.60;;;;;;;;;;4361727;33;20118;-91
2022/02/02 16:36:18;;;;;;;1.17;0.55;;;;;;;;;;4363536;32;20086;-91
2022/02/02 16:39:06;;;;;;;4.47;0.60;;;;;;;;;;4375585;32;20058;-92
2022/02/02 16:44:25;;;;;;;1.25;0.50;;;;;;;;;;4362593;32;20363;-92
2022/02/02 16:46:57;;;;;;;2.45;0.65;;;;;;;;;;4362085;32;20047;-92
2022/02/02 16:49:26;;;;;;;3.83;0.52;;;;;;;;;;4363993;32;20081;-92
2022/02/02 16:51:56;;;;;;;2.47;0.47;;;;;;;;;;4349785;32;20452;-92
2022/02/02 16:54:30;;;;;;;1.05;0.50;;;;;;;;;;4352056;32;20181;-92
2022/02/02 17:38:13;;;;;;;1.60;0.40;;;;;;;;;;4377860;32;20031;-91
2022/02/02 17:40:57;;;;;;;1.27;0.30;;;;;;;;;;4377989;32;20039;-91
2022/02/02 17:44:02;;;;;;;1.23;0.40;;;;;;;;;;4340993;32;20061;-91
2022/02/02 18:19:54;;;;;;;5.55;0.80;;;;;;;;;;4363324;32;20075;-90
2022/02/02 18:22:28;;;;;;;7.65;0.85;;;;;;;;;;4337483;33;20062;-91
2022/02/02 18:25:09;;;;;;;5.50;0.70;;;;;;;;;;4350035;33;20040;-90
2022/02/02 18:27:50;;;;;;;4.70;0.70;;;;;;;;;;4362452;32;20046;-91
2022/02/02 18:33:23;;;;;;;4.82;0.70;;;;;;;;;;4350094;33;20081;-91
2022/02/02 18:36:42;;;;;;;3.75;0.70;;;;;;;;;;4336826;33;20047;-91
2022/02/02 18:49:37;;;;;;;1.50;0.60;;;;;;;;;;4358576;32;20441;-91
2022/02/02 19:05:53;;;;;;;0.98;0.50;;;;;;;;;;4364828;32;20058;-91
2022/02/02 19:40:00;;;;;;;0.75;0.20;;;;;;;;;;4348441;33;20071;-90
2022/02/02 20:07:22;;;;;;;1.40;0.30;;;;;;;;;;4360558;33;20070;-91
2022/02/02 20:12:35;;;;;;;1.48;0.20;;;;;;;;;;4360805;33;20036;-90
2022/02/02 20:15:06;;;;;;;0.57;0.20;;;;;;;;;;4363395;32;20438;-90
2022/02/02 20:17:35;;;;;;;0.75;0.30;;;;;;;;;;4358630;32;20119;-90
2022/02/02 20:20:16;;;;;;;0.55;0.20;;;;;;;;;;4351862;32;20043;-90
2022/02/02 20:22:47;;;;;;;0.20;0.20;;;;;;;;;;4375870;32;20101;-90
2022/02/02 20:25:16;;;;;;;0.93;0.20;;;;;;;;;;4362320;32;20097;-90
2022/02/02 20:28:04;;;;;;;0.50;0.30;;;;;;;;;;4362269;32;20051;-91
2022/02/02 20:30:35;;;;;;;0.20;0.20;;;;;;;;;;4354288;32;20039;-90
2022/02/02 20:33:05;;;;;;;0.15;0.10;;;;;;;;;;4378504;32;20099;-90
2022/02/02 20:35:34;;;;;;;0.32;0.20;;;;;;;;;;4378766;32;20492;-90
2022/02/02 20:38:03;;;;;;;0.25;0.15;;;;;;;;;;4347646;32;20408;-90
2022/02/02 20:40:31;;;;;;;0.80;0.20;;;;;;;;;;4365653;32;20336;-91
2022/02/02 20:43:08;;;;;;;1.95;0.20;;;;;;;;;;4365862;32;20042;-90
2022/02/02 20:46:07;;;;;;;0.30;0.25;;;;;;;;;;4374734;32;20146;-91
2022/02/02 21:08:04;;;;;;;1.83;0.30;;;;;;;;;;4354582;33;20333;-91
2022/02/02 21:10:35;;;;;;;3.90;0.50;;;;;;;;;;4335533;33;20043;-92
2022/02/02 21:15:53;;;;;;;2.58;0.30;;;;;;;;;;4349586;33;20054;-91
2022/02/02 21:18:30;;;;;;;4.57;0.40;;;;;;;;;;4350732;33;20396;-91
2022/02/02 21:21:14;;;;;;;1.92;0.35;;;;;;;;;;4347053;33;20040;-91
2022/02/02 21:27:04;;;;;;;1.40;0.30;;;;;;;;;;4361580;32;20046;-91
2022/02/02 21:29:33;;;;;;;1.23;0.30;;;;;;;;;;4336409;33;20127;-92
2022/02/02 21:32:03;;;;;;;1.12;0.20;;;;;;;;;;4338933;32;20043;-92
2022/02/02 21:34:32;;;;;;;1.17;0.25;;;;;;;;;;4347416;33;20449;-92
2022/02/02 21:37:04;;;;;;;1.37;0.17;;;;;;;;;;4362347;32;20043;-91
2022/02/02 21:39:38;;;;;;;1.13;0.17;;;;;;;;;;4361593;32;20078;-92
2022/02/02 21:42:07;;;;;;;1.33;0.20;;;;;;;;;;4349844;33;20051;-92
2022/02/02 21:44:36;;;;;;;0.55;0.10;;;;;;;;;;4348105;33;20048;-91
2022/02/02 21:47:09;;;;;;;0.85;0.10;;;;;;;;;;4351473;32;20435;-91
2022/02/02 21:49:41;;;;;;;0.22;0.10;;;;;;;;;;4349638;33;20063;-91
2022/02/02 21:52:12;;;;;;;0.80;0.20;;;;;;;;;;4355555;33;20061;-91
2022/02/02 21:54:42;;;;;;;0.28;0.10;;;;;;;;;;4361822;32;20422;-91
2022/02/02 21:57:12;;;;;;;0.15;0.10;;;;;;;;;;4364114;32;20115;-91
2022/02/02 21:59:42;;;;;;;0.90;0.30;;;;;;;;;;4376351;32;20469;-91
2022/02/02 22:02:11;;;;;;;0.57;0.20;;;;;;;;;;4351414;32;20419;-91
2022/02/02 22:04:41;;;;;;;1.55;0.13;;;;;;;;;;4378435;32;20069;-91
2022/02/02 22:07:10;;;;;;;0.10;0.10;;;;;;;;;;4358819;32;20441;-92
2022/02/02 22:09:43;;;;;;;0.00;0.00;;;;;;;;;;4373954;32;20039;-91
2022/02/02 22:12:12;;;;;;;0.17;0.10;;;;;;;;;;4346697;32;20416;-92
2022/02/02 22:14:45;;;;;;;0.20;0.20;;;;;;;;;;4351391;32;20492;-92
2022/02/02 22:17:16;;;;;;;0.10;0.10;;;;;;;;;;4369555;32;20097;-92
2022/02/02 22:19:52;;;;;;;0.20;0.10;;;;;;;;;;4365997;32;20057;-92
2022/02/02 22:22:22;;;;;;;0.15;0.15;;;;;;;;;;4377561;32;20057;-92
2022/02/02 22:24:51;;;;;;;0.10;0.10;;;;;;;;;;4376460;32;20431;-92
2022/02/02 22:27:20;;;;;;;1.35;0.10;;;;;;;;;;4364592;32;20048;-92
2022/02/02 22:29:48;;;;;;;0.15;0.10;;;;;;;;;;4375859;32;20043;-92
2022/02/02 22:32:18;;;;;;;0.10;0.10;;;;;;;;;;4377309;32;20375;-92
2022/02/02 22:34:47;;;;;;;0.10;0.10;;;;;;;;;;4376137;32;20515;-92
2022/02/02 22:37:16;;;;;;;1.30;0.10;;;;;;;;;;4377007;32;20073;-92
2022/02/02 22:39:48;;;;;;;0.10;0.10;;;;;;;;;;4376656;32;20051;-92
2022/02/02 22:42:21;;;;;;;0.05;0.05;;;;;;;;;;4361854;32;20040;-92
2022/02/02 22:44:53;;;;;;;0.08;0.08;;;;;;;;;;4347532;33;20047;-93
2022/02/02 22:47:22;;;;;;;0.20;0.10;;;;;;;;;;4345996;33;20325;-93
2022/02/02 22:49:52;;;;;;;0.32;0.10;;;;;;;;;;4347540;33;20091;-92
2022/02/02 22:52:21;;;;;;;0.08;0.08;;;;;;;;;;4333937;33;20090;-92
2022/02/02 22:54:50;;;;;;;0.20;0.10;;;;;;;;;;4360676;32;20435;-92
2022/02/02 22:57:22;;;;;;;0.30;0.10;;;;;;;;;;4362812;33;20422;-92
2022/02/02 22:59:52;;;;;;;0.08;0.08;;;;;;;;;;4346978;33;20035;-92
2022/02/02 23:05:00;;;;;;;0.68;0.10;;;;;;;;;;4353718;32;20035;-92
2022/02/02 23:07:31;;;;;;;0.03;0.03;;;;;;;;;;4361248;32;20400;-92
2022/02/02 23:10:00;;;;;;;0.10;0.10;;;;;;;;;;4348434;33;20036;-92
2022/02/02 23:12:28;;;;;;;0.10;0.10;;;;;;;;;;4361569;32;20036;-92
2022/02/02 23:15:02;;;;;;;0.65;0.13;;;;;;;;;;4348282;33;20546;-92
2022/02/02 23:17:32;;;;;;;0.03;0.03;;;;;;;;;;4346771;33;20066;-93
2022/02/02 23:20:01;;;;;;;0.10;0.10;;;;;;;;;;4361783;32;20056;-92
2022/02/02 23:22:31;;;;;;;0.10;0.10;;;;;;;;;;4348556;33;20081;-92
2022/02/02 23:25:07;;;;;;;0.10;0.10;;;;;;;;;;4362980;32;20046;-92
2022/02/02 23:27:38;;;;;;;0.10;0.10;;;;;;;;;;4349589;33;20105;-92
2022/02/02 23:30:11;;;;;;;0.10;0.10;;;;;;;;;;4346329;33;20055;-92
2022/02/02 23:32:41;;;;;;;;;;;;;;;;;;4347398;33;20383;-93
2022/02/02 23:35:10;;;;;;;1.00;0.10;;;;;;;;;;4353980;33;19935;-92
2022/02/02 23:37:40;;;;;;;0.30;0.10;;;;;;;;;;4334235;33;20061;-92
2022/02/02 23:40:10;;;;;;;0.10;0.10;;;;;;;;;;4335435;33;20047;-91
2022/02/02 23:42:41;;;;;;;0.10;0.10;;;;;;;;;;4343237;33;20444;-91
2022/02/02 23:45:10;;;;;;;0.10;0.10;;;;;;;;;;4351245;33;20058;-91
2022/02/02 23:47:41;;;;;;;0.30;0.20;;;;;;;;;;4335382;33;20080;-91
2022/02/02 23:50:13;;;;;;;1.80;0.30;;;;;;;;;;4355750;33;20042;-91
2022/02/02 23:52:51;;;;;;;0.30;0.13;;;;;;;;;;4360767;32;20329;-92
2022/02/02 23:55:30;;;;;;;0.10;0.10;;;;;;;;;;4361726;33;20049;-92
2022/02/02 23:58:06;;;;;;;0.77;0.30;;;;;;;;;;4348161;32;20039;-92
